sensor_id;sensor_type;location;lat;lon;timestamp;pressure;altitude;pressure_sealevel;temperature;humidity
7441;BME280;29616;51.950;8.572;2023-09-30T00:01:37;100919.56;;;12.33;100.00
7441;BME280;29616;51.950;8.572;2023-09-30T00:04:08;100924.06;;;12.24;100.00
7441;BME280;29616;51.950;8.572;2023-09-30T00:06:37;100930.53;;;12.13;100.00
7441;BME280;29616;51.950;8.572;2023-09-30T00:09:06;100921.31;;;12.14;100.00
7441;BME280;29616;51.950;8.572;2023-09-30T00:11:39;100928.50;;;12.06;100.00
7441;BME280;29616;51.950;8.572;2023-09-30T00:14:09;100927.19;;;12.00;100.00
7441;BME280;29616;51.950;8.572;2023-09-30T00:16:39;100934.25;;;11.93;100.00
7441;BME280;29616;51.950;8.572;2023-09-30T00:19:08;100921.72;;;11.91;100.00
7441;BME280;29616;51.950;8.572;2023-09-30T00:21:38;100915.63;;;11.87;100.00
7441;BME280;29616;51.950;8.572;2023-09-30T00:24:07;100930.22;;;11.88;100.00
7441;BME280;29616;51.950;8.572;2023-09-30T00:26:38;100925.75;;;11.96;100.00
7441;BME280;29616;51.950;8.572;2023-09-30T00:29:08;100930.84;;;12.10;100.00
7441;BME280;29616;51.950;8.572;2023-09-30T00:31:40;100934.13;;;12.14;100.00
7441;BME280;29616;51.950;8.572;2023-09-30T00:34:10;100952.16;;;12.16;100.00
7441;BME280;29616;51.950;8.572;2023-09-30T00:36:41;100926.78;;;12.14;100.00
7441;BME280;29616;51.950;8.572;2023-09-30T00:39:13;100938.63;;;12.25;100.00
7441;BME280;29616;51.950;8.572;2023-09-30T00:41:43;100947.28;;;12.20;100.00
7441;BME280;29616;51.950;8.572;2023-09-30T00:44:15;100955.06;;;12.15;100.00
7441;BME280;29616;51.950;8.572;2023-09-30T00:46:44;100945.22;;;12.03;100.00
7441;BME280;29616;51.950;8.572;2023-09-30T00:49:15;100947.69;;;11.96;100.00
7441;BME280;29616;51.950;8.572;2023-09-30T00:51:47;100955.00;;;11.86;100.00
7441;BME280;29616;51.950;8.572;2023-09-30T00:54:18;100964.22;;;11.85;100.00
7441;BME280;29616;51.950;8.572;2023-09-30T00:56:54;100957.72;;;11.77;100.00
7441;BME280;29616;51.950;8.572;2023-09-30T00:59:26;100960.41;;;11.67;100.00
7441;BME280;29616;51.950;8.572;2023-09-30T01:01:57;100942.22;;;11.56;100.00
7441;BME280;29616;51.950;8.572;2023-09-30T01:04:30;100945.81;;;11.57;100.00
7441;BME280;29616;51.950;8.572;2023-09-30T01:06:59;100947.69;;;11.56;100.00
7441;BME280;29616;51.950;8.572;2023-09-30T01:09:31;100945.22;;;11.53;100.00
7441;BME280;29616;51.950;8.572;2023-09-30T01:12:05;100945.38;;;11.52;100.00
7441;BME280;29616;51.950;8.572;2023-09-30T01:14:36;100951.50;;;11.44;100.00
7441;BME280;29616;51.950;8.572;2023-09-30T01:17:10;100946.19;;;11.43;100.00
7441;BME280;29616;51.950;8.572;2023-09-30T01:19:42;100945.47;;;11.41;100.00
7441;BME280;29616;51.950;8.572;2023-09-30T01:22:14;100956.09;;;11.34;100.00
7441;BME280;29616;51.950;8.572;2023-09-30T01:24:44;100953.06;;;11.28;100.00
7441;BME280;29616;51.950;8.572;2023-09-30T01:27:14;100954.19;;;11.25;100.00
7441;BME280;29616;51.950;8.572;2023-09-30T01:29:46;100944.84;;;11.28;100.00
7441;BME280;29616;51.950;8.572;2023-09-30T01:32:15;100952.59;;;11.23;100.00
7441;BME280;29616;51.950;8.572;2023-09-30T01:34:43;100957.75;;;11.26;100.00
7441;BME280;29616;51.950;8.572;2023-09-30T01:37:15;100953.63;;;11.31;100.00
7441;BME280;29616;51.950;8.572;2023-09-30T01:39:45;100955.09;;;11.35;100.00
7441;BME280;29616;51.950;8.572;2023-09-30T01:42:14;100947.88;;;11.34;100.00
7441;BME280;29616;51.950;8.572;2023-09-30T01:44:44;100947.34;;;11.40;100.00
7441;BME280;29616;51.950;8.572;2023-09-30T01:47:14;100940.44;;;11.46;100.00
7441;BME280;29616;51.950;8.572;2023-09-30T01:49:46;100935.84;;;11.46;100.00
7441;BME280;29616;51.950;8.572;2023-09-30T01:52:16;100944.88;;;11.47;100.00
7441;BME280;29616;51.950;8.572;2023-09-30T01:54:50;100951.81;;;11.41;100.00
7441;BME280;29616;51.950;8.572;2023-09-30T01:57:20;100965.19;;;11.44;100.00
7441;BME280;29616;51.950;8.572;2023-09-30T01:59:50;100956.88;;;11.46;100.00
7441;BME280;29616;51.950;8.572;2023-09-30T02:02:20;100953.25;;;11.45;100.00
7441;BME280;29616;51.950;8.572;2023-09-30T02:04:49;100946.91;;;11.45;100.00
7441;BME280;29616;51.950;8.572;2023-09-30T02:07:20;100938.41;;;11.48;100.00
7441;BME280;29616;51.950;8.572;2023-09-30T02:09:51;100945.91;;;11.46;100.00
7441;BME280;29616;51.950;8.572;2023-09-30T02:12:22;100956.72;;;11.47;100.00
7441;BME280;29616;51.950;8.572;2023-09-30T02:14:51;100957.16;;;11.52;100.00
7441;BME280;29616;51.950;8.572;2023-09-30T02:17:20;100955.44;;;11.51;100.00
7441;BME280;29616;51.950;8.572;2023-09-30T02:19:50;100961.78;;;11.52;100.00
7441;BME280;29616;51.950;8.572;2023-09-30T02:22:25;100974.47;;;11.53;100.00
7441;BME280;29616;51.950;8.572;2023-09-30T02:24:56;100972.44;;;11.55;100.00
7441;BME280;29616;51.950;8.572;2023-09-30T02:27:26;100972.75;;;11.52;100.00
7441;BME280;29616;51.950;8.572;2023-09-30T02:29:57;100961.03;;;11.40;100.00
7441;BME280;29616;51.950;8.572;2023-09-30T02:32:27;100992.44;;;11.46;100.00
7441;BME280;29616;51.950;8.572;2023-09-30T02:34:58;100992.38;;;11.36;100.00
7441;BME280;29616;51.950;8.572;2023-09-30T02:37:32;100981.75;;;11.33;100.00
7441;BME280;29616;51.950;8.572;2023-09-30T02:40:04;100983.16;;;11.28;100.00
7441;BME280;29616;51.950;8.572;2023-09-30T02:42:39;100978.06;;;11.23;100.00
7441;BME280;29616;51.950;8.572;2023-09-30T02:45:11;100977.22;;;11.23;100.00
7441;BME280;29616;51.950;8.572;2023-09-30T02:47:42;100975.22;;;11.25;100.00
7441;BME280;29616;51.950;8.572;2023-09-30T02:50:13;100977.69;;;11.28;100.00
7441;BME280;29616;51.950;8.572;2023-09-30T02:52:46;100982.56;;;11.34;100.00
7441;BME280;29616;51.950;8.572;2023-09-30T02:55:20;100984.59;;;11.32;100.00
7441;BME280;29616;51.950;8.572;2023-09-30T02:57:49;100990.47;;;11.27;100.00
7441;BME280;29616;51.950;8.572;2023-09-30T03:00:21;100999.91;;;11.14;100.00
7441;BME280;29616;51.950;8.572;2023-09-30T03:02:53;100994.38;;;11.04;100.00
7441;BME280;29616;51.950;8.572;2023-09-30T03:05:22;101004.97;;;10.98;100.00
7441;BME280;29616;51.950;8.572;2023-09-30T03:07:55;101001.53;;;10.95;100.00
7441;BME280;29616;51.950;8.572;2023-09-30T03:10:23;100985.31;;;10.83;100.00
7441;BME280;29616;51.950;8.572;2023-09-30T03:12:53;100977.84;;;10.85;100.00
7441;BME280;29616;51.950;8.572;2023-09-30T03:15:23;100981.56;;;10.84;100.00
7441;BME280;29616;51.950;8.572;2023-09-30T03:17:56;100983.91;;;10.88;100.00
7441;BME280;29616;51.950;8.572;2023-09-30T03:20:29;100975.53;;;10.80;100.00
7441;BME280;29616;51.950;8.572;2023-09-30T03:23:01;100975.38;;;10.82;100.00
7441;BME280;29616;51.950;8.572;2023-09-30T03:25:33;100963.09;;;10.76;100.00
7441;BME280;29616;51.950;8.572;2023-09-30T03:28:03;100960.31;;;10.87;100.00
7441;BME280;29616;51.950;8.572;2023-09-30T03:30:34;100966.50;;;10.89;100.00
7441;BME280;29616;51.950;8.572;2023-09-30T03:33:04;100972.50;;;10.83;100.00
7441;BME280;29616;51.950;8.572;2023-09-30T03:35:33;100971.72;;;10.72;100.00
7441;BME280;29616;51.950;8.572;2023-09-30T03:38:09;100989.38;;;10.68;100.00
7441;BME280;29616;51.950;8.572;2023-09-30T03:40:39;100986.06;;;10.64;100.00
7441;BME280;29616;51.950;8.572;2023-09-30T03:43:17;101008.69;;;10.55;100.00
7441;BME280;29616;51.950;8.572;2023-09-30T03:45:47;100997.53;;;10.47;100.00
7441;BME280;29616;51.950;8.572;2023-09-30T03:48:18;100989.88;;;10.41;100.00
7441;BME280;29616;51.950;8.572;2023-09-30T03:50:48;100986.53;;;10.38;100.00
7441;BME280;29616;51.950;8.572;2023-09-30T03:53:21;100982.06;;;10.37;100.00
7441;BME280;29616;51.950;8.572;2023-09-30T03:55:56;100988.59;;;10.24;100.00
7441;BME280;29616;51.950;8.572;2023-09-30T03:58:26;100981.13;;;10.26;100.00
7441;BME280;29616;51.950;8.572;2023-09-30T04:00:56;100987.47;;;10.27;100.00
7441;BME280;29616;51.950;8.572;2023-09-30T04:03:28;100988.66;;;10.34;100.00
7441;BME280;29616;51.950;8.572;2023-09-30T04:06:00;100986.41;;;10.39;100.00
7441;BME280;29616;51.950;8.572;2023-09-30T04:08:33;100985.44;;;10.29;100.00
7441;BME280;29616;51.950;8.572;2023-09-30T04:11:03;100992.94;;;10.16;100.00
7441;BME280;29616;51.950;8.572;2023-09-30T04:13:33;100985.88;;;10.13;100.00
7441;BME280;29616;51.950;8.572;2023-09-30T04:16:04;100987.34;;;10.06;100.00
7441;BME280;29616;51.950;8.572;2023-09-30T04:18:35;100977.78;;;10.01;100.00
7441;BME280;29616;51.950;8.572;2023-09-30T04:21:04;100981.03;;;10.06;100.00
7441;BME280;29616;51.950;8.572;2023-09-30T04:23:37;100981.03;;;10.06;100.00
7441;BME280;29616;51.950;8.572;2023-09-30T04:26:08;100982.41;;;10.00;100.00
7441;BME280;29616;51.950;8.572;2023-09-30T04:28:37;100981.06;;;9.95;100.00
7441;BME280;29616;51.950;8.572;2023-09-30T04:31:08;100984.78;;;9.94;100.00
7441;BME280;29616;51.950;8.572;2023-09-30T04:33:38;100992.56;;;9.98;100.00
7441;BME280;29616;51.950;8.572;2023-09-30T04:36:08;100993.94;;;9.93;100.00
7441;BME280;29616;51.950;8.572;2023-09-30T04:38:40;100991.97;;;9.95;100.00
7441;BME280;29616;51.950;8.572;2023-09-30T04:41:11;100984.78;;;9.94;100.00
7441;BME280;29616;51.950;8.572;2023-09-30T04:43:42;100986.53;;;9.95;100.00
7441;BME280;29616;51.950;8.572;2023-09-30T04:46:14;101002.91;;;9.95;100.00
7441;BME280;29616;51.950;8.572;2023-09-30T04:48:49;101002.13;;;9.93;100.00
7441;BME280;29616;51.950;8.572;2023-09-30T04:51:19;100997.81;;;9.90;100.00
7441;BME280;29616;51.950;8.572;2023-09-30T04:53:53;100999.31;;;9.83;100.00
7441;BME280;29616;51.950;8.572;2023-09-30T04:56:24;101005.16;;;9.90;100.00
7441;BME280;29616;51.950;8.572;2023-09-30T04:58:55;101006.38;;;9.97;100.00
7441;BME280;29616;51.950;8.572;2023-09-30T05:01:27;101014.41;;;9.98;100.00
7441;BME280;29616;51.950;8.572;2023-09-30T05:03:58;101005.88;;;10.03;100.00
7441;BME280;29616;51.950;8.572;2023-09-30T05:06:30;101011.09;;;10.06;100.00
7441;BME280;29616;51.950;8.572;2023-09-30T05:09:03;100998.16;;;10.08;100.00
7441;BME280;29616;51.950;8.572;2023-09-30T05:11:33;101003.16;;;10.14;100.00
7441;BME280;29616;51.950;8.572;2023-09-30T05:14:05;101009.09;;;10.19;100.00
7441;BME280;29616;51.950;8.572;2023-09-30T05:16:34;101007.81;;;10.23;100.00
7441;BME280;29616;51.950;8.572;2023-09-30T05:19:04;101016.97;;;10.33;100.00
7441;BME280;29616;51.950;8.572;2023-09-30T05:21:35;101018.94;;;10.42;100.00
7441;BME280;29616;51.950;8.572;2023-09-30T05:24:08;101011.06;;;10.49;100.00
7441;BME280;29616;51.950;8.572;2023-09-30T05:26:39;101024.31;;;10.64;100.00
7441;BME280;29616;51.950;8.572;2023-09-30T05:29:13;101030.13;;;10.71;100.00
7441;BME280;29616;51.950;8.572;2023-09-30T05:31:44;101014.84;;;10.68;100.00
7441;BME280;29616;51.950;8.572;2023-09-30T05:34:13;101028.22;;;10.82;100.00
7441;BME280;29616;51.950;8.572;2023-09-30T05:36:42;101026.94;;;10.86;100.00
7441;BME280;29616;51.950;8.572;2023-09-30T05:39:16;101019.06;;;10.93;100.00
7441;BME280;29616;51.950;8.572;2023-09-30T05:41:48;101008.66;;;10.87;100.00
7441;BME280;29616;51.950;8.572;2023-09-30T05:44:19;101023.00;;;11.00;100.00
7441;BME280;29616;51.950;8.572;2023-09-30T05:46:51;101025.31;;;11.05;100.00
7441;BME280;29616;51.950;8.572;2023-09-30T05:49:22;101027.78;;;11.08;100.00
7441;BME280;29616;51.950;8.572;2023-09-30T05:51:52;101026.53;;;11.12;100.00
7441;BME280;29616;51.950;8.572;2023-09-30T05:54:24;101035.47;;;11.14;100.00
7441;BME280;29616;51.950;8.572;2023-09-30T05:56:54;101031.34;;;11.19;100.00
7441;BME280;29616;51.950;8.572;2023-09-30T05:59:26;101049.56;;;11.30;100.00
7441;BME280;29616;51.950;8.572;2023-09-30T06:01:56;101060.69;;;11.38;100.00
7441;BME280;29616;51.950;8.572;2023-09-30T06:04:26;101067.75;;;11.40;100.00
7441;BME280;29616;51.950;8.572;2023-09-30T06:06:57;101066.00;;;11.39;100.00
7441;BME280;29616;51.950;8.572;2023-09-30T06:09:28;101064.88;;;11.42;100.00
7441;BME280;29616;51.950;8.572;2023-09-30T06:11:58;101076.59;;;11.44;100.00
7441;BME280;29616;51.950;8.572;2023-09-30T06:14:29;101063.34;;;11.49;100.00
7441;BME280;29616;51.950;8.572;2023-09-30T06:16:59;101065.81;;;11.52;100.00
7441;BME280;29616;51.950;8.572;2023-09-30T06:19:28;101071.88;;;11.55;100.00
7441;BME280;29616;51.950;8.572;2023-09-30T06:21:59;101080.69;;;11.59;100.00
7441;BME280;29616;51.950;8.572;2023-09-30T06:24:32;101071.69;;;11.68;100.00
7441;BME280;29616;51.950;8.572;2023-09-30T06:27:03;101065.94;;;11.71;100.00
7441;BME280;29616;51.950;8.572;2023-09-30T06:29:31;101070.16;;;11.75;100.00
7441;BME280;29616;51.950;8.572;2023-09-30T06:32:03;101072.00;;;11.75;100.00
7441;BME280;29616;51.950;8.572;2023-09-30T06:34:33;101069.88;;;11.78;100.00
7441;BME280;29616;51.950;8.572;2023-09-30T06:37:04;101078.19;;;11.97;100.00
7441;BME280;29616;51.950;8.572;2023-09-30T06:39:37;101075.63;;;12.05;100.00
7441;BME280;29616;51.950;8.572;2023-09-30T06:42:07;101079.13;;;12.27;100.00
7441;BME280;29616;51.950;8.572;2023-09-30T06:44:37;101073.38;;;12.39;100.00
7441;BME280;29616;51.950;8.572;2023-09-30T06:47:08;101083.84;;;12.74;100.00
7441;BME280;29616;51.950;8.572;2023-09-30T06:49:41;101084.97;;;12.81;100.00
7441;BME280;29616;51.950;8.572;2023-09-30T06:52:09;101089.59;;;13.00;100.00
7441;BME280;29616;51.950;8.572;2023-09-30T06:54:43;101085.56;;;12.85;100.00
7441;BME280;29616;51.950;8.572;2023-09-30T06:57:13;101088.16;;;12.86;100.00
7441;BME280;29616;51.950;8.572;2023-09-30T06:59:45;101087.88;;;12.99;100.00
7441;BME280;29616;51.950;8.572;2023-09-30T07:02:17;101095.38;;;12.97;100.00
7441;BME280;29616;51.950;8.572;2023-09-30T07:04:48;101089.34;;;12.93;100.00
7441;BME280;29616;51.950;8.572;2023-09-30T07:07:19;101088.63;;;13.20;100.00
7441;BME280;29616;51.950;8.572;2023-09-30T07:09:51;101085.72;;;13.21;100.00
7441;BME280;29616;51.950;8.572;2023-09-30T07:12:21;101102.63;;;14.19;100.00
7441;BME280;29616;51.950;8.572;2023-09-30T07:14:53;101104.31;;;15.02;100.00
7441;BME280;29616;51.950;8.572;2023-09-30T07:17:22;101106.09;;;15.46;100.00
7441;BME280;29616;51.950;8.572;2023-09-30T07:19:52;101102.78;;;16.20;100.00
7441;BME280;29616;51.950;8.572;2023-09-30T07:22:25;101110.84;;;16.47;100.00
7441;BME280;29616;51.950;8.572;2023-09-30T07:25:18;101116.31;;;16.05;100.00
7441;BME280;29616;51.950;8.572;2023-09-30T07:27:49;101114.59;;;15.78;100.00
7441;BME280;29616;51.950;8.572;2023-09-30T07:30:20;101115.25;;;16.32;100.00
7441;BME280;29616;51.950;8.572;2023-09-30T07:32:52;101126.16;;;16.08;100.00
7441;BME280;29616;51.950;8.572;2023-09-30T07:35:23;101118.00;;;16.32;100.00
7441;BME280;29616;51.950;8.572;2023-09-30T07:37:54;101108.09;;;16.47;100.00
7441;BME280;29616;51.950;8.572;2023-09-30T07:40:27;101116.44;;;16.71;100.00
7441;BME280;29616;51.950;8.572;2023-09-30T07:42:58;101118.09;;;17.14;100.00
7441;BME280;29616;51.950;8.572;2023-09-30T07:45:57;101109.81;;;17.30;100.00
7441;BME280;29616;51.950;8.572;2023-09-30T07:48:30;101121.59;;;17.65;100.00
7441;BME280;29616;51.950;8.572;2023-09-30T07:51:02;101121.72;;;18.03;100.00
7441;BME280;29616;51.950;8.572;2023-09-30T07:53:32;101129.97;;;18.20;100.00
7441;BME280;29616;51.950;8.572;2023-09-30T07:56:04;101134.84;;;18.17;100.00
7441;BME280;29616;51.950;8.572;2023-09-30T07:58:35;101142.09;;;18.02;100.00
7441;BME280;29616;51.950;8.572;2023-09-30T08:01:03;101143.00;;;18.97;100.00
7441;BME280;29616;51.950;8.572;2023-09-30T08:03:32;101138.97;;;18.68;100.00
7441;BME280;29616;51.950;8.572;2023-09-30T08:06:07;101126.78;;;18.86;100.00
7441;BME280;29616;51.950;8.572;2023-09-30T08:08:37;101135.34;;;19.21;100.00
7441;BME280;29616;51.950;8.572;2023-09-30T08:11:10;101139.91;;;18.53;100.00
7441;BME280;29616;51.950;8.572;2023-09-30T08:13:40;101140.97;;;19.13;100.00
7441;BME280;29616;51.950;8.572;2023-09-30T08:16:11;101138.06;;;19.07;100.00
7441;BME280;29616;51.950;8.572;2023-09-30T08:18:43;101133.44;;;19.53;100.00
7441;BME280;29616;51.950;8.572;2023-09-30T08:21:15;101145.06;;;20.52;100.00
7441;BME280;29616;51.950;8.572;2023-09-30T08:23:44;101143.81;;;19.73;100.00
7441;BME280;29616;51.950;8.572;2023-09-30T08:26:17;101147.91;;;19.63;100.00
7441;BME280;29616;51.950;8.572;2023-09-30T08:28:48;101144.47;;;19.98;100.00
7441;BME280;29616;51.950;8.572;2023-09-30T08:31:18;101148.28;;;19.97;100.00
7441;BME280;29616;51.950;8.572;2023-09-30T08:33:50;101158.84;;;20.31;100.00
7441;BME280;29616;51.950;8.572;2023-09-30T08:36:20;101142.72;;;19.60;100.00
7441;BME280;29616;51.950;8.572;2023-09-30T08:38:54;101150.09;;;19.90;100.00
7441;BME280;29616;51.950;8.572;2023-09-30T08:41:31;101158.84;;;19.79;100.00
7441;BME280;29616;51.950;8.572;2023-09-30T08:44:02;101151.72;;;19.99;100.00
7441;BME280;29616;51.950;8.572;2023-09-30T08:46:34;101162.75;;;20.22;100.00
7441;BME280;29616;51.950;8.572;2023-09-30T08:49:06;101166.72;;;20.27;100.00
7441;BME280;29616;51.950;8.572;2023-09-30T08:51:40;101165.56;;;20.36;100.00
7441;BME280;29616;51.950;8.572;2023-09-30T08:54:08;101163.38;;;20.46;100.00
7441;BME280;29616;51.950;8.572;2023-09-30T08:56:47;101166.34;;;20.45;100.00
7441;BME280;29616;51.950;8.572;2023-09-30T08:59:18;101143.28;;;20.30;100.00
7441;BME280;29616;51.950;8.572;2023-09-30T09:01:52;101164.47;;;20.81;100.00
7441;BME280;29616;51.950;8.572;2023-09-30T09:04:26;101164.72;;;20.65;100.00
7441;BME280;29616;51.950;8.572;2023-09-30T09:06:56;101164.78;;;20.86;100.00
7441;BME280;29616;51.950;8.572;2023-09-30T09:09:28;101166.59;;;20.94;100.00
7441;BME280;29616;51.950;8.572;2023-09-30T09:12:01;101157.41;;;21.29;100.00
7441;BME280;29616;51.950;8.572;2023-09-30T09:14:38;101170.34;;;21.37;100.00
7441;BME280;29616;51.950;8.572;2023-09-30T09:17:11;101159.09;;;21.45;100.00
7441;BME280;29616;51.950;8.572;2023-09-30T09:19:44;101166.44;;;21.52;100.00
7441;BME280;29616;51.950;8.572;2023-09-30T09:22:38;101148.94;;;22.01;100.00
7441;BME280;29616;51.950;8.572;2023-09-30T09:25:09;101141.44;;;22.63;100.00
7441;BME280;29616;51.950;8.572;2023-09-30T09:27:41;101160.91;;;22.98;100.00
7441;BME280;29616;51.950;8.572;2023-09-30T09:30:18;101156.94;;;22.72;100.00
7441;BME280;29616;51.950;8.572;2023-09-30T09:32:58;101160.94;;;22.35;100.00
7441;BME280;29616;51.950;8.572;2023-09-30T09:35:31;101149.47;;;21.26;100.00
7441;BME280;29616;51.950;8.572;2023-09-30T09:38:03;101149.91;;;21.08;100.00
7441;BME280;29616;51.950;8.572;2023-09-30T09:40:36;101135.34;;;21.06;100.00
7441;BME280;29616;51.950;8.572;2023-09-30T09:43:11;101161.31;;;20.99;100.00
7441;BME280;29616;51.950;8.572;2023-09-30T09:45:44;101147.75;;;20.75;100.00
7441;BME280;29616;51.950;8.572;2023-09-30T09:48:17;101143.31;;;21.09;100.00
7441;BME280;29616;51.950;8.572;2023-09-30T09:50:48;101141.00;;;20.84;100.00
7441;BME280;29616;51.950;8.572;2023-09-30T09:53:21;101154.63;;;21.29;100.00
7441;BME280;29616;51.950;8.572;2023-09-30T09:55:53;101162.19;;;20.85;100.00
7441;BME280;29616;51.950;8.572;2023-09-30T09:58:27;101127.47;;;20.60;100.00
7441;BME280;29616;51.950;8.572;2023-09-30T10:01:05;101130.41;;;21.44;100.00
7441;BME280;29616;51.950;8.572;2023-09-30T10:03:35;101147.47;;;20.55;100.00
7441;BME280;29616;51.950;8.572;2023-09-30T10:06:05;101112.19;;;19.97;100.00
7441;BME280;29616;51.950;8.572;2023-09-30T10:08:40;101136.44;;;20.03;100.00
7441;BME280;29616;51.950;8.572;2023-09-30T10:11:17;101145.06;;;19.85;100.00
7441;BME280;29616;51.950;8.572;2023-09-30T10:13:54;101130.22;;;19.64;100.00
7441;BME280;29616;51.950;8.572;2023-09-30T10:16:48;101144.03;;;19.86;100.00
7441;BME280;29616;51.950;8.572;2023-09-30T10:19:22;101150.78;;;21.30;100.00
7441;BME280;29616;51.950;8.572;2023-09-30T10:22:22;101133.63;;;22.46;100.00
7441;BME280;29616;51.950;8.572;2023-09-30T10:24:55;101151.63;;;22.50;100.00
7441;BME280;29616;51.950;8.572;2023-09-30T10:27:35;101148.56;;;21.04;100.00
7441;BME280;29616;51.950;8.572;2023-09-30T10:30:14;101146.56;;;21.13;100.00
7441;BME280;29616;51.950;8.572;2023-09-30T10:33:08;101130.66;;;21.07;100.00
7441;BME280;29616;51.950;8.572;2023-09-30T10:35:48;101158.81;;;20.16;100.00
7441;BME280;29616;51.950;8.572;2023-09-30T10:38:37;101176.44;;;20.23;100.00
7441;BME280;29616;51.950;8.572;2023-09-30T10:41:10;101168.97;;;19.49;100.00
7441;BME280;29616;51.950;8.572;2023-09-30T10:44:35;101153.81;;;19.06;100.00
7441;BME280;29616;51.950;8.572;2023-09-30T10:47:37;101151.16;;;18.90;100.00
7441;BME280;29616;51.950;8.572;2023-09-30T10:50:53;101152.56;;;18.86;100.00
7441;BME280;29616;51.950;8.572;2023-09-30T10:53:24;101141.72;;;19.07;100.00
7441;BME280;29616;51.950;8.572;2023-09-30T10:55:58;101130.78;;;19.06;100.00
7441;BME280;29616;51.950;8.572;2023-09-30T10:58:41;101130.31;;;19.02;100.00
7441;BME280;29616;51.950;8.572;2023-09-30T11:01:16;101139.66;;;19.01;100.00
7441;BME280;29616;51.950;8.572;2023-09-30T11:04:01;101143.81;;;19.05;100.00
7441;BME280;29616;51.950;8.572;2023-09-30T11:06:40;101149.97;;;20.35;100.00
7441;BME280;29616;51.950;8.572;2023-09-30T11:09:16;101159.28;;;20.05;100.00
7441;BME280;29616;51.950;8.572;2023-09-30T11:11:53;101161.09;;;19.98;100.00
7441;BME280;29616;51.950;8.572;2023-09-30T11:14:26;101128.56;;;19.55;100.00
7441;BME280;29616;51.950;8.572;2023-09-30T11:17:02;101142.22;;;21.10;100.00
7441;BME280;29616;51.950;8.572;2023-09-30T11:19:37;101157.47;;;22.27;100.00
7441;BME280;29616;51.950;8.572;2023-09-30T11:22:17;101152.72;;;22.89;100.00
7441;BME280;29616;51.950;8.572;2023-09-30T11:24:47;101161.84;;;23.18;100.00
7441;BME280;29616;51.950;8.572;2023-09-30T11:27:23;101145.22;;;23.57;100.00
7441;BME280;29616;51.950;8.572;2023-09-30T11:29:56;101141.41;;;23.84;100.00
7441;BME280;29616;51.950;8.572;2023-09-30T11:32:28;101163.50;;;23.06;100.00
7441;BME280;29616;51.950;8.572;2023-09-30T11:35:01;101159.59;;;22.25;100.00
7441;BME280;29616;51.950;8.572;2023-09-30T11:37:33;101163.78;;;22.70;100.00
7441;BME280;29616;51.950;8.572;2023-09-30T11:40:12;101153.84;;;21.35;100.00
7441;BME280;29616;51.950;8.572;2023-09-30T11:43:08;101164.25;;;20.32;100.00
7441;BME280;29616;51.950;8.572;2023-09-30T11:46:05;101159.56;;;20.10;100.00
7441;BME280;29616;51.950;8.572;2023-09-30T11:48:38;101156.59;;;19.60;100.00
7441;BME280;29616;51.950;8.572;2023-09-30T11:51:13;101151.91;;;19.38;100.00
7441;BME280;29616;51.950;8.572;2023-09-30T11:53:44;101147.72;;;19.42;100.00
7441;BME280;29616;51.950;8.572;2023-09-30T11:56:16;101135.91;;;19.17;100.00
7441;BME280;29616;51.950;8.572;2023-09-30T11:58:48;101141.66;;;19.15;100.00
7441;BME280;29616;51.950;8.572;2023-09-30T12:01:19;101138.94;;;19.07;100.00
7441;BME280;29616;51.950;8.572;2023-09-30T12:03:50;101137.72;;;19.10;100.00
7441;BME280;29616;51.950;8.572;2023-09-30T12:06:27;101132.91;;;20.09;100.00
7441;BME280;29616;51.950;8.572;2023-09-30T12:08:57;101133.16;;;22.14;100.00
7441;BME280;29616;51.950;8.572;2023-09-30T12:11:27;101135.28;;;23.28;100.00
7441;BME280;29616;51.950;8.572;2023-09-30T12:13:59;101112.06;;;23.15;100.00
7441;BME280;29616;51.950;8.572;2023-09-30T12:16:29;101126.22;;;22.31;100.00
7441;BME280;29616;51.950;8.572;2023-09-30T12:19:01;101124.03;;;21.29;100.00
7441;BME280;29616;51.950;8.572;2023-09-30T12:21:33;101112.09;;;21.29;100.00
7441;BME280;29616;51.950;8.572;2023-09-30T12:24:04;101127.00;;;21.70;100.00
7441;BME280;29616;51.950;8.572;2023-09-30T12:26:34;101117.66;;;23.15;100.00
7441;BME280;29616;51.950;8.572;2023-09-30T12:29:04;101104.00;;;23.85;100.00
7441;BME280;29616;51.950;8.572;2023-09-30T12:31:37;101113.00;;;24.33;100.00
7441;BME280;29616;51.950;8.572;2023-09-30T12:34:19;101094.81;;;24.88;100.00
7441;BME280;29616;51.950;8.572;2023-09-30T12:36:53;101106.72;;;25.08;100.00
7441;BME280;29616;51.950;8.572;2023-09-30T12:39:24;101100.34;;;25.33;100.00
7441;BME280;29616;51.950;8.572;2023-09-30T12:41:56;101106.06;;;25.13;91.83
7441;BME280;29616;51.950;8.572;2023-09-30T12:44:26;101112.19;;;23.87;100.00
7441;BME280;29616;51.950;8.572;2023-09-30T12:46:56;101097.31;;;24.39;100.00
7441;BME280;29616;51.950;8.572;2023-09-30T12:49:26;101096.41;;;25.71;97.48
7441;BME280;29616;51.950;8.572;2023-09-30T12:51:58;101104.94;;;25.83;89.79
7441;BME280;29616;51.950;8.572;2023-09-30T12:54:32;101092.25;;;25.56;87.98
7441;BME280;29616;51.950;8.572;2023-09-30T12:57:03;101096.41;;;25.96;87.32
7441;BME280;29616;51.950;8.572;2023-09-30T12:59:37;101103.09;;;26.81;87.65
7441;BME280;29616;51.950;8.572;2023-09-30T13:02:08;101083.84;;;26.05;88.66
7441;BME280;29616;51.950;8.572;2023-09-30T13:04:39;101078.47;;;26.46;90.92
7441;BME280;29616;51.950;8.572;2023-09-30T13:07:12;101085.28;;;27.05;80.12
7441;BME280;29616;51.950;8.572;2023-09-30T13:09:44;101078.13;;;26.91;72.83
7441;BME280;29616;51.950;8.572;2023-09-30T13:12:14;101079.41;;;27.25;76.58
7441;BME280;29616;51.950;8.572;2023-09-30T13:14:46;101077.47;;;27.25;73.71
7441;BME280;29616;51.950;8.572;2023-09-30T13:17:18;101074.91;;;27.35;73.45
7441;BME280;29616;51.950;8.572;2023-09-30T13:19:49;101081.56;;;26.38;71.99